sensor_id;sensor_type;location;lat;lon;timestamp;P1;durP1;ratioP1;P2;durP2;ratioP2
53040;SDS011;39326;42.650;23.248;2024-01-07T00:00:16;11.87;;;9.57;;
53040;SDS011;39326;42.650;23.248;2024-01-07T00:02:42;10.60;;;9.43;;
53040;SDS011;39326;42.650;23.248;2024-01-07T00:05:07;11.40;;;9.63;;
53040;SDS011;39326;42.650;23.248;2024-01-07T00:07:33;10.77;;;8.73;;
53040;SDS011;39326;42.650;23.248;2024-01-07T00:09:58;10.93;;;9.83;;
53040;SDS011;39326;42.650;23.248;2024-01-07T00:12:24;10.50;;;9.40;;
53040;SDS011;39326;42.650;23.248;2024-01-07T00:14:50;11.77;;;9.23;;
53040;SDS011;39326;42.650;23.248;2024-01-07T00:17:16;10.93;;;8.40;;
53040;SDS011;39326;42.650;23.248;2024-01-07T00:19:41;10.30;;;9.20;;
53040;SDS011;39326;42.650;23.248;2024-01-07T00:22:07;9.87;;;7.93;;
53040;SDS011;39326;42.650;23.248;2024-01-07T00:24:32;12.03;;;9.63;;
53040;SDS011;39326;42.650;23.248;2024-01-07T00:26:57;11.03;;;8.60;;
53040;SDS011;39326;42.650;23.248;2024-01-07T00:29:23;9.93;;;8.57;;
53040;SDS011;39326;42.650;23.248;2024-01-07T00:31:48;9.63;;;8.07;;
53040;SDS011;39326;42.650;23.248;2024-01-07T00:34:14;8.80;;;7.83;;
53040;SDS011;39326;42.650;23.248;2024-01-07T00:36:39;9.10;;;8.20;;
53040;SDS011;39326;42.650;23.248;2024-01-07T00:39:05;12.00;;;8.87;;
53040;SDS011;39326;42.650;23.248;2024-01-07T00:41:30;11.57;;;8.73;;
53040;SDS011;39326;42.650;23.248;2024-01-07T00:43:56;12.37;;;9.70;;
53040;SDS011;39326;42.650;23.248;2024-01-07T00:46:21;9.70;;;8.70;;
53040;SDS011;39326;42.650;23.248;2024-01-07T00:48:47;10.43;;;9.30;;
53040;SDS011;39326;42.650;23.248;2024-01-07T00:51:12;9.47;;;8.40;;
53040;SDS011;39326;42.650;23.248;2024-01-07T00:53:38;9.57;;;8.00;;
53040;SDS011;39326;42.650;23.248;2024-01-07T00:56:03;13.53;;;9.23;;
53040;SDS011;39326;42.650;23.248;2024-01-07T00:58:29;12.17;;;8.93;;
53040;SDS011;39326;42.650;23.248;2024-01-07T01:00:54;12.43;;;10.77;;
53040;SDS011;39326;42.650;23.248;2024-01-07T01:03:20;11.13;;;9.63;;
53040;SDS011;39326;42.650;23.248;2024-01-07T01:05:45;10.20;;;9.20;;
53040;SDS011;39326;42.650;23.248;2024-01-07T01:08:11;13.57;;;11.47;;
53040;SDS011;39326;42.650;23.248;2024-01-07T01:10:36;12.40;;;11.17;;
53040;SDS011;39326;42.650;23.248;2024-01-07T01:13:02;13.43;;;11.27;;
53040;SDS011;39326;42.650;23.248;2024-01-07T01:15:28;15.80;;;13.30;;
53040;SDS011;39326;42.650;23.248;2024-01-07T01:17:53;14.03;;;12.13;;
53040;SDS011;39326;42.650;23.248;2024-01-07T01:20:19;15.67;;;13.80;;
53040;SDS011;39326;42.650;23.248;2024-01-07T01:22:44;13.80;;;12.40;;
53040;SDS011;39326;42.650;23.248;2024-01-07T01:25:09;14.33;;;12.83;;
53040;SDS011;39326;42.650;23.248;2024-01-07T01:27:35;14.70;;;13.20;;
53040;SDS011;39326;42.650;23.248;2024-01-07T01:30:01;16.47;;;13.37;;
53040;SDS011;39326;42.650;23.248;2024-01-07T01:32:26;14.87;;;13.27;;
53040;SDS011;39326;42.650;23.248;2024-01-07T01:34:52;15.03;;;13.27;;
53040;SDS011;39326;42.650;23.248;2024-01-07T01:37:17;15.07;;;13.50;;
53040;SDS011;39326;42.650;23.248;2024-01-07T01:39:43;16.87;;;15.07;;
53040;SDS011;39326;42.650;23.248;2024-01-07T01:42:08;17.40;;;15.60;;
53040;SDS011;39326;42.650;23.248;2024-01-07T01:44:34;19.63;;;15.23;;
53040;SDS011;39326;42.650;23.248;2024-01-07T01:46:59;15.73;;;13.87;;
53040;SDS011;39326;42.650;23.248;2024-01-07T01:49:26;14.73;;;13.23;;
53040;SDS011;39326;42.650;23.248;2024-01-07T01:51:52;15.67;;;13.17;;
53040;SDS011;39326;42.650;23.248;2024-01-07T01:54:20;16.80;;;15.00;;
53040;SDS011;39326;42.650;23.248;2024-01-07T01:56:47;17.70;;;15.93;;
53040;SDS011;39326;42.650;23.248;2024-01-07T01:59:14;16.73;;;14.90;;
53040;SDS011;39326;42.650;23.248;2024-01-07T02:01:40;17.53;;;15.20;;
53040;SDS011;39326;42.650;23.248;2024-01-07T02:04:05;16.77;;;15.17;;
53040;SDS011;39326;42.650;23.248;2024-01-07T02:06:31;19.40;;;16.77;;
53040;SDS011;39326;42.650;23.248;2024-01-07T02:08:57;17.00;;;15.30;;
53040;SDS011;39326;42.650;23.248;2024-01-07T02:11:22;17.47;;;15.30;;
53040;SDS011;39326;42.650;23.248;2024-01-07T02:13:48;16.00;;;14.50;;
53040;SDS011;39326;42.650;23.248;2024-01-07T02:16:14;16.47;;;14.77;;
53040;SDS011;39326;42.650;23.248;2024-01-07T02:18:40;16.03;;;14.13;;
53040;SDS011;39326;42.650;23.248;2024-01-07T02:21:06;13.50;;;11.93;;
53040;SDS011;39326;42.650;23.248;2024-01-07T02:23:32;14.83;;;13.00;;
53040;SDS011;39326;42.650;23.248;2024-01-07T02:25:58;14.33;;;12.93;;
53040;SDS011;39326;42.650;23.248;2024-01-07T02:28:23;12.13;;;10.87;;
53040;SDS011;39326;42.650;23.248;2024-01-07T02:30:48;12.77;;;11.47;;
53040;SDS011;39326;42.650;23.248;2024-01-07T02:33:14;12.43;;;11.17;;
53040;SDS011;39326;42.650;23.248;2024-01-07T02:35:39;12.73;;;10.80;;
53040;SDS011;39326;42.650;23.248;2024-01-07T02:38:05;12.27;;;11.00;;
53040;SDS011;39326;42.650;23.248;2024-01-07T02:40:30;10.43;;;9.23;;
53040;SDS011;39326;42.650;23.248;2024-01-07T02:42:55;12.90;;;9.97;;
53040;SDS011;39326;42.650;23.248;2024-01-07T02:45:22;10.93;;;9.83;;
53040;SDS011;39326;42.650;23.248;2024-01-07T02:47:47;10.40;;;9.10;;
53040;SDS011;39326;42.650;23.248;2024-01-07T02:50:13;11.00;;;9.90;;
53040;SDS011;39326;42.650;23.248;2024-01-07T02:52:38;9.30;;;7.77;;
53040;SDS011;39326;42.650;23.248;2024-01-07T02:55:04;11.90;;;10.40;;
53040;SDS011;39326;42.650;23.248;2024-01-07T02:57:30;14.30;;;11.50;;
53040;SDS011;39326;42.650;23.248;2024-01-07T02:59:55;15.83;;;13.17;;
53040;SDS011;39326;42.650;23.248;2024-01-07T03:02:20;13.80;;;12.30;;
53040;SDS011;39326;42.650;23.248;2024-01-07T03:04:46;13.53;;;11.50;;
53040;SDS011;39326;42.650;23.248;2024-01-07T03:07:11;13.00;;;11.70;;
53040;SDS011;39326;42.650;23.248;2024-01-07T03:09:37;11.93;;;10.60;;
53040;SDS011;39326;42.650;23.248;2024-01-07T03:12:02;11.83;;;10.73;;
53040;SDS011;39326;42.650;23.248;2024-01-07T03:14:28;11.60;;;9.23;;
53040;SDS011;39326;42.650;23.248;2024-01-07T03:16:53;12.23;;;7.97;;
53040;SDS011;39326;42.650;23.248;2024-01-07T03:19:18;9.00;;;7.70;;
53040;SDS011;39326;42.650;23.248;2024-01-07T03:21:44;8.90;;;7.03;;
53040;SDS011;39326;42.650;23.248;2024-01-07T03:24:10;8.20;;;6.97;;
53040;SDS011;39326;42.650;23.248;2024-01-07T03:26:35;9.60;;;8.60;;
53040;SDS011;39326;42.650;23.248;2024-01-07T03:29:01;10.60;;;7.63;;
53040;SDS011;39326;42.650;23.248;2024-01-07T03:31:27;8.87;;;7.80;;
53040;SDS011;39326;42.650;23.248;2024-01-07T03:33:53;10.57;;;8.00;;
53040;SDS011;39326;42.650;23.248;2024-01-07T03:36:18;9.23;;;7.30;;
53040;SDS011;39326;42.650;23.248;2024-01-07T03:38:44;8.37;;;6.90;;
53040;SDS011;39326;42.650;23.248;2024-01-07T03:41:15;6.90;;;5.10;;
53040;SDS011;39326;42.650;23.248;2024-01-07T03:43:43;3.47;;;2.27;;
53040;SDS011;39326;42.650;23.248;2024-01-07T03:46:08;3.67;;;2.57;;
53040;SDS011;39326;42.650;23.248;2024-01-07T03:48:33;3.20;;;2.00;;
53040;SDS011;39326;42.650;23.248;2024-01-07T03:50:59;3.33;;;2.37;;
53040;SDS011;39326;42.650;23.248;2024-01-07T03:53:24;3.60;;;2.20;;
53040;SDS011;39326;42.650;23.248;2024-01-07T03:55:50;2.33;;;1.30;;
53040;SDS011;39326;42.650;23.248;2024-01-07T03:58:15;2.60;;;1.70;;
53040;SDS011;39326;42.650;23.248;2024-01-07T04:00:40;2.60;;;1.90;;
53040;SDS011;39326;42.650;23.248;2024-01-07T04:03:06;2.10;;;1.80;;
53040;SDS011;39326;42.650;23.248;2024-01-07T04:05:31;2.40;;;1.80;;
53040;SDS011;39326;42.650;23.248;2024-01-07T04:07:58;1.87;;;1.60;;
53040;SDS011;39326;42.650;23.248;2024-01-07T04:10:25;1.90;;;1.43;;
53040;SDS011;39326;42.650;23.248;2024-01-07T04:12:50;2.57;;;2.30;;
53040;SDS011;39326;42.650;23.248;2024-01-07T04:15:16;1.70;;;1.60;;
53040;SDS011;39326;42.650;23.248;2024-01-07T04:17:41;2.77;;;1.90;;
53040;SDS011;39326;42.650;23.248;2024-01-07T04:20:07;2.57;;;2.10;;
53040;SDS011;39326;42.650;23.248;2024-01-07T04:22:33;4.27;;;3.73;;
53040;SDS011;39326;42.650;23.248;2024-01-07T04:24:58;5.20;;;3.50;;
53040;SDS011;39326;42.650;23.248;2024-01-07T04:27:24;3.30;;;3.00;;
53040;SDS011;39326;42.650;23.248;2024-01-07T04:29:52;3.97;;;3.50;;
53040;SDS011;39326;42.650;23.248;2024-01-07T04:32:17;4.77;;;3.87;;
53040;SDS011;39326;42.650;23.248;2024-01-07T04:34:42;5.23;;;3.20;;
53040;SDS011;39326;42.650;23.248;2024-01-07T04:37:08;4.30;;;3.53;;
53040;SDS011;39326;42.650;23.248;2024-01-07T04:39:33;4.30;;;3.77;;
53040;SDS011;39326;42.650;23.248;2024-01-07T04:41:59;4.53;;;3.50;;
53040;SDS011;39326;42.650;23.248;2024-01-07T04:44:24;5.37;;;3.73;;
53040;SDS011;39326;42.650;23.248;2024-01-07T04:46:49;4.33;;;3.70;;
53040;SDS011;39326;42.650;23.248;2024-01-07T04:49:15;4.23;;;3.83;;
53040;SDS011;39326;42.650;23.248;2024-01-07T04:51:40;5.93;;;4.10;;
53040;SDS011;39326;42.650;23.248;2024-01-07T04:54:06;5.50;;;4.10;;
53040;SDS011;39326;42.650;23.248;2024-01-07T04:56:31;6.20;;;4.57;;
53040;SDS011;39326;42.650;23.248;2024-01-07T04:58:57;4.50;;;3.30;;
53040;SDS011;39326;42.650;23.248;2024-01-07T05:01:23;5.47;;;4.17;;
53040;SDS011;39326;42.650;23.248;2024-01-07T05:03:48;34.13;;;30.77;;
53040;SDS011;39326;42.650;23.248;2024-01-07T05:06:13;36.80;;;33.10;;
53040;SDS011;39326;42.650;23.248;2024-01-07T05:08:40;66.60;;;60.80;;
53040;SDS011;39326;42.650;23.248;2024-01-07T05:11:05;50.97;;;46.67;;
53040;SDS011;39326;42.650;23.248;2024-01-07T05:13:31;13.50;;;12.40;;
53040;SDS011;39326;42.650;23.248;2024-01-07T05:15:57;9.03;;;8.33;;
53040;SDS011;39326;42.650;23.248;2024-01-07T05:18:22;4.97;;;4.07;;
53040;SDS011;39326;42.650;23.248;2024-01-07T05:20:48;3.87;;;3.47;;
53040;SDS011;39326;42.650;23.248;2024-01-07T05:23:14;3.43;;;3.13;;
53040;SDS011;39326;42.650;23.248;2024-01-07T05:25:42;3.63;;;2.80;;
53040;SDS011;39326;42.650;23.248;2024-01-07T05:28:08;4.20;;;3.00;;
53040;SDS011;39326;42.650;23.248;2024-01-07T05:30:33;2.40;;;2.20;;
53040;SDS011;39326;42.650;23.248;2024-01-07T05:32:58;3.30;;;2.70;;
53040;SDS011;39326;42.650;23.248;2024-01-07T05:35:24;4.87;;;4.37;;
53040;SDS011;39326;42.650;23.248;2024-01-07T05:37:49;5.73;;;4.90;;
53040;SDS011;39326;42.650;23.248;2024-01-07T05:40:15;4.90;;;3.57;;
53040;SDS011;39326;42.650;23.248;2024-01-07T05:42:40;3.60;;;3.30;;
53040;SDS011;39326;42.650;23.248;2024-01-07T05:45:06;5.30;;;4.80;;
53040;SDS011;39326;42.650;23.248;2024-01-07T05:47:32;7.10;;;5.97;;
53040;SDS011;39326;42.650;23.248;2024-01-07T05:49:57;6.37;;;5.17;;
53040;SDS011;39326;42.650;23.248;2024-01-07T05:52:22;7.23;;;6.53;;
53040;SDS011;39326;42.650;23.248;2024-01-07T05:54:48;8.10;;;6.63;;
53040;SDS011;39326;42.650;23.248;2024-01-07T05:57:13;6.23;;;5.63;;
53040;SDS011;39326;42.650;23.248;2024-01-07T05:59:39;7.63;;;6.33;;
53040;SDS011;39326;42.650;23.248;2024-01-07T06:02:04;6.30;;;5.27;;
53040;SDS011;39326;42.650;23.248;2024-01-07T06:04:30;5.60;;;5.07;;
53040;SDS011;39326;42.650;23.248;2024-01-07T06:06:55;5.90;;;5.20;;
53040;SDS011;39326;42.650;23.248;2024-01-07T06:09:21;5.30;;;4.80;;
53040;SDS011;39326;42.650;23.248;2024-01-07T06:11:46;5.37;;;4.87;;
53040;SDS011;39326;42.650;23.248;2024-01-07T06:14:11;5.27;;;4.73;;
53040;SDS011;39326;42.650;23.248;2024-01-07T06:16:37;5.73;;;5.13;;
53040;SDS011;39326;42.650;23.248;2024-01-07T06:19:02;7.67;;;6.97;;
53040;SDS011;39326;42.650;23.248;2024-01-07T06:21:28;7.90;;;7.10;;
53040;SDS011;39326;42.650;23.248;2024-01-07T06:23:54;6.37;;;5.87;;
53040;SDS011;39326;42.650;23.248;2024-01-07T06:26:19;5.30;;;4.90;;
53040;SDS011;39326;42.650;23.248;2024-01-07T06:28:45;4.73;;;4.03;;
53040;SDS011;39326;42.650;23.248;2024-01-07T06:31:10;4.70;;;4.30;;
53040;SDS011;39326;42.650;23.248;2024-01-07T06:33:35;5.93;;;5.37;;
53040;SDS011;39326;42.650;23.248;2024-01-07T06:36:01;5.63;;;5.13;;
53040;SDS011;39326;42.650;23.248;2024-01-07T06:38:27;6.33;;;5.67;;
53040;SDS011;39326;42.650;23.248;2024-01-07T06:40:52;8.57;;;6.23;;
53040;SDS011;39326;42.650;23.248;2024-01-07T06:43:20;6.77;;;6.17;;
53040;SDS011;39326;42.650;23.248;2024-01-07T06:45:45;6.40;;;5.80;;
53040;SDS011;39326;42.650;23.248;2024-01-07T06:48:11;6.00;;;5.43;;
53040;SDS011;39326;42.650;23.248;2024-01-07T06:50:36;5.50;;;5.00;;
53040;SDS011;39326;42.650;23.248;2024-01-07T06:53:01;6.10;;;5.53;;
53040;SDS011;39326;42.650;23.248;2024-01-07T06:55:27;9.07;;;6.97;;
53040;SDS011;39326;42.650;23.248;2024-01-07T06:57:52;7.93;;;7.20;;
53040;SDS011;39326;42.650;23.248;2024-01-07T07:00:18;8.50;;;7.80;;
53040;SDS011;39326;42.650;23.248;2024-01-07T07:02:43;11.50;;;7.63;;
53040;SDS011;39326;42.650;23.248;2024-01-07T07:05:09;10.00;;;7.67;;
53040;SDS011;39326;42.650;23.248;2024-01-07T07:07:34;9.37;;;7.77;;
53040;SDS011;39326;42.650;23.248;2024-01-07T07:10:00;8.33;;;7.53;;
53040;SDS011;39326;42.650;23.248;2024-01-07T07:12:25;7.70;;;6.93;;
53040;SDS011;39326;42.650;23.248;2024-01-07T07:14:51;8.47;;;7.43;;
53040;SDS011;39326;42.650;23.248;2024-01-07T07:17:16;7.90;;;7.20;;
53040;SDS011;39326;42.650;23.248;2024-01-07T07:19:41;7.80;;;7.03;;
53040;SDS011;39326;42.650;23.248;2024-01-07T07:22:07;6.17;;;5.60;;
53040;SDS011;39326;42.650;23.248;2024-01-07T07:24:33;6.90;;;6.20;;
53040;SDS011;39326;42.650;23.248;2024-01-07T07:26:58;5.80;;;5.20;;
53040;SDS011;39326;42.650;23.248;2024-01-07T07:29:23;6.30;;;5.77;;
53040;SDS011;39326;42.650;23.248;2024-01-07T07:31:49;5.73;;;5.17;;
53040;SDS011;39326;42.650;23.248;2024-01-07T07:34:14;6.17;;;5.57;;
53040;SDS011;39326;42.650;23.248;2024-01-07T07:36:40;6.43;;;5.80;;
53040;SDS011;39326;42.650;23.248;2024-01-07T07:39:06;6.27;;;5.73;;
53040;SDS011;39326;42.650;23.248;2024-01-07T07:41:32;7.50;;;6.90;;
53040;SDS011;39326;42.650;23.248;2024-01-07T07:43:57;7.00;;;6.30;;
53040;SDS011;39326;42.650;23.248;2024-01-07T07:46:23;7.00;;;6.40;;
53040;SDS011;39326;42.650;23.248;2024-01-07T07:48:48;7.43;;;6.73;;
53040;SDS011;39326;42.650;23.248;2024-01-07T07:51:14;7.07;;;6.43;;
53040;SDS011;39326;42.650;23.248;2024-01-07T07:53:40;8.03;;;7.23;;
53040;SDS011;39326;42.650;23.248;2024-01-07T07:56:05;7.80;;;7.10;;
53040;SDS011;39326;42.650;23.248;2024-01-07T07:58:31;10.27;;;8.20;;
53040;SDS011;39326;42.650;23.248;2024-01-07T08:00:57;8.00;;;7.30;;
53040;SDS011;39326;42.650;23.248;2024-01-07T08:03:23;8.60;;;7.83;;
53040;SDS011;39326;42.650;23.248;2024-01-07T08:05:48;6.70;;;6.10;;
53040;SDS011;39326;42.650;23.248;2024-01-07T08:08:15;7.37;;;6.77;;
53040;SDS011;39326;42.650;23.248;2024-01-07T08:10:41;6.40;;;5.90;;
53040;SDS011;39326;42.650;23.248;2024-01-07T08:13:07;7.27;;;5.80;;
53040;SDS011;39326;42.650;23.248;2024-01-07T08:15:33;5.63;;;5.13;;
53040;SDS011;39326;42.650;23.248;2024-01-07T08:17:59;5.23;;;4.73;;
53040;SDS011;39326;42.650;23.248;2024-01-07T08:20:25;5.90;;;4.90;;
53040;SDS011;39326;42.650;23.248;2024-01-07T08:22:50;4.83;;;4.40;;
53040;SDS011;39326;42.650;23.248;2024-01-07T08:25:16;6.77;;;6.10;;
53040;SDS011;39326;42.650;23.248;2024-01-07T08:27:41;5.83;;;5.07;;
53040;SDS011;39326;42.650;23.248;2024-01-07T08:30:07;5.23;;;4.00;;
53040;SDS011;39326;42.650;23.248;2024-01-07T08:32:33;5.33;;;4.83;;
53040;SDS011;39326;42.650;23.248;2024-01-07T08:35:00;5.73;;;4.70;;
53040;SDS011;39326;42.650;23.248;2024-01-07T08:37:25;5.10;;;4.67;;
53040;SDS011;39326;42.650;23.248;2024-01-07T08:39:51;5.10;;;4.27;;
53040;SDS011;39326;42.650;23.248;2024-01-07T08:42:16;6.33;;;4.80;;
53040;SDS011;39326;42.650;23.248;2024-01-07T08:44:42;4.40;;;4.00;;
53040;SDS011;39326;42.650;23.248;2024-01-07T08:47:07;6.03;;;5.53;;
53040;SDS011;39326;42.650;23.248;2024-01-07T08:49:33;6.60;;;5.87;;
53040;SDS011;39326;42.650;23.248;2024-01-07T08:51:58;5.47;;;4.97;;
53040;SDS011;39326;42.650;23.248;2024-01-07T08:54:24;4.87;;;4.47;;
53040;SDS011;39326;42.650;23.248;2024-01-07T08:56:50;6.17;;;5.53;;
53040;SDS011;39326;42.650;23.248;2024-01-07T08:59:15;6.00;;;5.50;;
53040;SDS011;39326;42.650;23.248;2024-01-07T09:01:41;5.83;;;5.30;;
53040;SDS011;39326;42.650;23.248;2024-01-07T09:04:06;6.20;;;5.60;;
53040;SDS011;39326;42.650;23.248;2024-01-07T09:06:32;6.27;;;5.33;;
53040;SDS011;39326;42.650;23.248;2024-01-07T09:08:57;5.50;;;5.10;;
53040;SDS011;39326;42.650;23.248;2024-01-07T09:11:23;5.60;;;5.00;;
53040;SDS011;39326;42.650;23.248;2024-01-07T09:13:49;7.13;;;6.43;;
53040;SDS011;39326;42.650;23.248;2024-01-07T09:16:15;5.73;;;5.23;;
53040;SDS011;39326;42.650;23.248;2024-01-07T09:18:41;5.57;;;5.07;;
53040;SDS011;39326;42.650;23.248;2024-01-07T09:21:09;7.50;;;5.83;;
53040;SDS011;39326;42.650;23.248;2024-01-07T09:23:34;7.03;;;6.37;;
53040;SDS011;39326;42.650;23.248;2024-01-07T09:26:01;6.90;;;6.30;;
53040;SDS011;39326;42.650;23.248;2024-01-07T09:28:26;7.47;;;6.80;;
53040;SDS011;39326;42.650;23.248;2024-01-07T09:30:56;7.63;;;6.93;;
53040;SDS011;39326;42.650;23.248;2024-01-07T09:33:42;8.53;;;7.80;;
53040;SDS011;39326;42.650;23.248;2024-01-07T09:36:07;8.57;;;7.97;;
53040;SDS011;39326;42.650;23.248;2024-01-07T09:38:33;8.00;;;7.23;;
53040;SDS011;39326;42.650;23.248;2024-01-07T09:40:58;8.10;;;7.30;;
53040;SDS011;39326;42.650;23.248;2024-01-07T09:43:24;7.13;;;6.53;;
53040;SDS011;39326;42.650;23.248;2024-01-07T09:45:50;7.53;;;6.83;;
53040;SDS011;39326;42.650;23.248;2024-01-07T09:48:17;7.43;;;6.83;;
53040;SDS011;39326;42.650;23.248;2024-01-07T09:50:42;8.57;;;7.77;;
53040;SDS011;39326;42.650;23.248;2024-01-07T09:53:10;11.10;;;10.00;;
53040;SDS011;39326;42.650;23.248;2024-01-07T09:55:40;10.20;;;9.20;;
53040;SDS011;39326;42.650;23.248;2024-01-07T09:58:28;7.73;;;7.13;;
53040;SDS011;39326;42.650;23.248;2024-01-07T10:00:54;7.60;;;6.90;;
53040;SDS011;39326;42.650;23.248;2024-01-07T10:03:19;6.73;;;6.13;;
53040;SDS011;39326;42.650;23.248;2024-01-07T10:05:45;8.13;;;7.00;;
53040;SDS011;39326;42.650;23.248;2024-01-07T10:08:10;9.27;;;8.37;;
53040;SDS011;39326;42.650;23.248;2024-01-07T10:10:36;9.73;;;8.73;;
53040;SDS011;39326;42.650;23.248;2024-01-07T10:13:02;9.30;;;7.73;;
53040;SDS011;39326;42.650;23.248;2024-01-07T10:15:27;8.63;;;7.83;;
53040;SDS011;39326;42.650;23.248;2024-01-07T10:17:56;7.93;;;7.13;;
53040;SDS011;39326;42.650;23.248;2024-01-07T10:20:29;5.10;;;4.60;;
53040;SDS011;39326;42.650;23.248;2024-01-07T10:22:56;5.60;;;4.70;;
53040;SDS011;39326;42.650;23.248;2024-01-07T10:25:22;6.00;;;3.53;;
53040;SDS011;39326;42.650;23.248;2024-01-07T10:27:47;5.70;;;4.07;;
53040;SDS011;39326;42.650;23.248;2024-01-07T10:30:13;5.23;;;3.90;;
53040;SDS011;39326;42.650;23.248;2024-01-07T10:32:41;4.40;;;3.10;;
53040;SDS011;39326;42.650;23.248;2024-01-07T10:35:08;3.70;;;2.07;;
53040;SDS011;39326;42.650;23.248;2024-01-07T10:37:41;5.53;;;2.00;;
53040;SDS011;39326;42.650;23.248;2024-01-07T10:40:08;3.73;;;1.60;;
53040;SDS011;39326;42.650;23.248;2024-01-07T10:42:36;3.73;;;3.23;;
53040;SDS011;39326;42.650;23.248;2024-01-07T10:45:03;7.17;;;5.70;;
53040;SDS011;39326;42.650;23.248;2024-01-07T10:47:30;7.17;;;6.47;;
53040;SDS011;39326;42.650;23.248;2024-01-07T10:49:59;7.07;;;6.30;;
53040;SDS011;39326;42.650;23.248;2024-01-07T10:52:28;6.00;;;5.47;;
53040;SDS011;39326;42.650;23.248;2024-01-07T10:54:57;5.20;;;4.50;;
53040;SDS011;39326;42.650;23.248;2024-01-07T10:57:39;4.40;;;2.50;;
53040;SDS011;39326;42.650;23.248;2024-01-07T11:00:11;3.77;;;1.33;;
53040;SDS011;39326;42.650;23.248;2024-01-07T11:02:55;2.47;;;1.13;;
53040;SDS011;39326;42.650;23.248;2024-01-07T11:05:40;2.13;;;1.20;;
53040;SDS011;39326;42.650;23.248;2024-01-07T11:11:52;7.30;;;6.70;;
53040;SDS011;39326;42.650;23.248;2024-01-07T11:13:57;7.47;;;6.83;;
53040;SDS011;39326;42.650;23.248;2024-01-07T11:16:44;7.90;;;7.20;;
53040;SDS011;39326;42.650;23.248;2024-01-07T11:19:12;8.03;;;6.40;;
53040;SDS011;39326;42.650;23.248;2024-01-07T11:21:39;5.27;;;4.80;;
53040;SDS011;39326;42.650;23.248;2024-01-07T11:24:05;3.07;;;2.57;;
53040;SDS011;39326;42.650;23.248;2024-01-07T11:26:30;1.97;;;1.30;;
53040;SDS011;39326;42.650;23.248;2024-01-07T11:28:56;1.60;;;1.17;;
53040;SDS011;39326;42.650;23.248;2024-01-07T11:37:19;11.53;;;10.20;;
53040;SDS011;39326;42.650;23.248;2024-01-07T11:39:46;9.23;;;8.37;;
53040;SDS011;39326;42.650;23.248;2024-01-07T11:42:13;7.43;;;6.73;;
53040;SDS011;39326;42.650;23.248;2024-01-07T11:44:45;6.77;;;6.27;;
53040;SDS011;39326;42.650;23.248;2024-01-07T11:47:12;7.23;;;6.53;;
53040;SDS011;39326;42.650;23.248;2024-01-07T11:49:38;8.80;;;8.00;;
53040;SDS011;39326;42.650;23.248;2024-01-07T11:52:04;7.93;;;7.23;;
53040;SDS011;39326;42.650;23.248;2024-01-07T11:54:30;8.27;;;7.47;;
53040;SDS011;39326;42.650;23.248;2024-01-07T11:56:57;8.60;;;7.80;;
53040;SDS011;39326;42.650;23.248;2024-01-07T11:59:23;9.37;;;8.47;;
53040;SDS011;39326;42.650;23.248;2024-01-07T12:01:48;10.33;;;8.67;;
53040;SDS011;39326;42.650;23.248;2024-01-07T12:04:14;9.80;;;8.27;;
53040;SDS011;39326;42.650;23.248;2024-01-07T12:06:40;9.80;;;8.80;;
53040;SDS011;39326;42.650;23.248;2024-01-07T12:09:05;8.80;;;8.00;;
53040;SDS011;39326;42.650;23.248;2024-01-07T12:11:31;7.80;;;7.00;;
53040;SDS011;39326;42.650;23.248;2024-01-07T12:13:57;8.37;;;7.57;;
53040;SDS011;39326;42.650;23.248;2024-01-07T12:16:23;7.83;;;7.03;;
53040;SDS011;39326;42.650;23.248;2024-01-07T12:18:49;8.90;;;8.00;;
53040;SDS011;39326;42.650;23.248;2024-01-07T12:21:20;7.77;;;6.90;;
53040;SDS011;39326;42.650;23.248;2024-01-07T12:23:50;9.60;;;8.03;;
53040;SDS011;39326;42.650;23.248;2024-01-07T12:26:16;10.10;;;7.17;;
53040;SDS011;39326;42.650;23.248;2024-01-07T12:28:44;8.40;;;7.40;;
53040;SDS011;39326;42.650;23.248;2024-01-07T12:31:10;9.00;;;8.20;;
53040;SDS011;39326;42.650;23.248;2024-01-07T12:33:38;9.00;;;8.17;;
53040;SDS011;39326;42.650;23.248;2024-01-07T12:36:06;9.13;;;8.23;;
53040;SDS011;39326;42.650;23.248;2024-01-07T12:38:32;8.60;;;7.80;;
53040;SDS011;39326;42.650;23.248;2024-01-07T12:40:58;8.10;;;7.30;;
53040;SDS011;39326;42.650;23.248;2024-01-07T12:43:23;9.07;;;7.47;;
53040;SDS011;39326;42.650;23.248;2024-01-07T12:45:49;7.77;;;6.93;;
53040;SDS011;39326;42.650;23.248;2024-01-07T12:48:15;7.57;;;6.87;;
53040;SDS011;39326;42.650;23.248;2024-01-07T12:50:41;7.67;;;6.97;;
53040;SDS011;39326;42.650;23.248;2024-01-07T12:53:07;7.73;;;6.93;;
53040;SDS011;39326;42.650;23.248;2024-01-07T12:55:32;9.40;;;7.23;;
53040;SDS011;39326;42.650;23.248;2024-01-07T12:57:58;7.57;;;6.73;;
53040;SDS011;39326;42.650;23.248;2024-01-07T13:00:25;7.73;;;6.93;;
53040;SDS011;39326;42.650;23.248;2024-01-07T13:02:51;7.30;;;5.60;;
53040;SDS011;39326;42.650;23.248;2024-01-07T13:05:17;6.27;;;5.67;;
53040;SDS011;39326;42.650;23.248;2024-01-07T13:07:43;6.33;;;5.67;;
53040;SDS011;39326;42.650;23.248;2024-01-07T13:10:09;5.97;;;5.37;;
53040;SDS011;39326;42.650;23.248;2024-01-07T13:12:35;6.70;;;6.10;;
53040;SDS011;39326;42.650;23.248;2024-01-07T13:15:02;6.07;;;5.47;;
53040;SDS011;39326;42.650;23.248;2024-01-07T13:17:29;5.93;;;5.37;;
53040;SDS011;39326;42.650;23.248;2024-01-07T13:19:55;6.57;;;5.43;;
53040;SDS011;39326;42.650;23.248;2024-01-07T13:22:21;7.20;;;6.50;;
53040;SDS011;39326;42.650;23.248;2024-01-07T13:24:47;7.20;;;6.50;;
53040;SDS011;39326;42.650;23.248;2024-01-07T13:27:12;8.53;;;6.70;;
53040;SDS011;39326;42.650;23.248;2024-01-07T13:29:38;10.97;;;8.87;;
53040;SDS011;39326;42.650;23.248;2024-01-07T13:32:04;10.33;;;9.33;;
53040;SDS011;39326;42.650;23.248;2024-01-07T13:34:30;8.40;;;6.43;;
53040;SDS011;39326;42.650;23.248;2024-01-07T13:36:55;6.80;;;6.07;;
53040;SDS011;39326;42.650;23.248;2024-01-07T13:39:21;7.37;;;6.73;;
53040;SDS011;39326;42.650;23.248;2024-01-07T13:41:47;7.83;;;7.13;;
53040;SDS011;39326;42.650;23.248;2024-01-07T13:44:13;7.93;;;7.20;;
53040;SDS011;39326;42.650;23.248;2024-01-07T13:46:45;9.93;;;7.97;;
53040;SDS011;39326;42.650;23.248;2024-01-07T13:49:17;7.00;;;6.30;;
53040;SDS011;39326;42.650;23.248;2024-01-07T13:51:43;7.40;;;6.70;;
53040;SDS011;39326;42.650;23.248;2024-01-07T13:54:09;8.03;;;7.23;;
53040;SDS011;39326;42.650;23.248;2024-01-07T13:56:38;9.03;;;8.30;;
53040;SDS011;39326;42.650;23.248;2024-01-07T13:59:07;8.73;;;7.60;;
53040;SDS011;39326;42.650;23.248;2024-01-07T14:01:33;10.00;;;8.07;;
53040;SDS011;39326;42.650;23.248;2024-01-07T14:03:58;7.10;;;6.40;;
53040;SDS011;39326;42.650;23.248;2024-01-07T14:06:24;6.90;;;6.20;;
53040;SDS011;39326;42.650;23.248;2024-01-07T14:08:49;8.63;;;7.17;;
53040;SDS011;39326;42.650;23.248;2024-01-07T14:11:15;8.40;;;7.60;;
53040;SDS011;39326;42.650;23.248;2024-01-07T14:13:40;8.90;;;8.00;;
53040;SDS011;39326;42.650;23.248;2024-01-07T14:16:09;7.17;;;6.47;;
53040;SDS011;39326;42.650;23.248;2024-01-07T14:18:35;7.50;;;6.80;;
53040;SDS011;39326;42.650;23.248;2024-01-07T14:21:00;7.53;;;6.87;;
53040;SDS011;39326;42.650;23.248;2024-01-07T14:23:26;7.70;;;6.97;;
53040;SDS011;39326;42.650;23.248;2024-01-07T14:25:52;7.90;;;7.10;;
53040;SDS011;39326;42.650;23.248;2024-01-07T14:28:17;7.27;;;6.57;;
53040;SDS011;39326;42.650;23.248;2024-01-07T14:30:43;7.00;;;6.33;;